Carpenter, Wyoming
Current Conditions -  °F | °C
As of 10:55 AM on Monday 24 Nov 2014 (Local Time) from K82V Reporting Station
Scattered Clouds Scattered Clouds  
Wind Chill: 25°   Ceiling: Unl
Heat Index: 37°   Visibility: 10mi
Dew Point: 16°   Wind: 32mph
Humidity: 41%   Direction: 310°NW
Pressure: 29.91"   Gusts: 43mph
Location:  41.05°N, 104.37°W
Report Text: K82V 241755Z AUTO 31028G37KT 10SM SCT050 03/M09 A2991 RMK AO2
Loading
Personal Weather Stations






























Interactive Weather Map New forecast layout! Learn more

10-Day Weather Forecast

Advertisements
Track Severe Weather on mobile